Time;durP1;ratioP1;P1;durP2;ratioP2;P2;SDS_P1;SDS_P2;PMS_P1;PMS_P2;Temp;Humidity;BMP_temperature;BMP_pressure;BME280_temperature;BME280_humidity;BME280_pressure;Samples;Min_cycle;Max_cycle;Signal;HPM_P1;HPM_P2
2023/09/23 00:00:13;;;;;;;1999.90;999.90;;;12.10;99.90;;;;;;5093766;28;20028;-67
2023/09/23 00:02:42;;;;;;;1999.90;999.90;;;12.20;99.90;;;;;;5095560;28;20444;-66
2023/09/23 00:05:11;;;;;;;1999.90;999.90;;;12.20;99.90;;;;;;5081670;28;20024;-67
2023/09/23 00:07:41;;;;;;;1999.90;999.90;;;12.20;99.90;;;;;;5079134;28;20024;-86
2023/09/23 00:10:08;;;;;;;1999.90;999.90;;;12.20;99.90;;;;;;5091400;28;20040;-67
2023/09/23 00:12:38;;;;;;;1999.90;999.90;;;12.20;99.90;;;;;;5091313;28;20023;-67
2023/09/23 00:15:05;;;;;;;1999.90;999.90;;;12.20;99.90;;;;;;5078261;28;20103;-67
2023/09/23 00:17:32;;;;;;;1999.90;999.90;;;12.20;99.90;;;;;;5085072;28;20357;-68
2023/09/23 00:19:58;;;;;;;;;;;12.20;99.90;;;;;;5086321;28;20024;-68
2023/09/23 00:22:23;;;;;;;1999.90;999.90;;;12.20;99.90;;;;;;5089590;28;19943;-69
2023/09/23 00:24:50;;;;;;;1999.90;999.90;;;12.20;99.90;;;;;;5094946;28;20283;-72
2023/09/23 00:27:17;;;;;;;1999.90;999.90;;;12.20;99.90;;;;;;5095991;28;20031;-69
2023/09/23 00:29:46;;;;;;;1999.90;999.90;;;12.20;99.90;;;;;;5093916;28;20438;-69
2023/09/23 00:32:12;;;;;;;1999.90;999.90;;;12.30;99.90;;;;;;5079785;28;20441;-69
2023/09/23 00:34:39;;;;;;;1999.90;999.90;;;12.20;99.90;;;;;;5076263;28;20289;-69
2023/09/23 00:37:07;;;;;;;1999.90;999.90;;;12.30;99.90;;;;;;5078376;28;20032;-69
2023/09/23 00:39:41;;;;;;;1999.90;999.90;;;12.30;99.90;;;;;;5078192;28;20012;-69
2023/09/23 00:42:10;;;;;;;1999.90;999.90;;;12.30;99.90;;;;;;5075871;28;20037;-69
2023/09/23 00:44:39;;;;;;;1999.90;999.90;;;12.30;99.90;;;;;;5080547;28;20078;-69
2023/09/23 00:47:06;;;;;;;1999.90;999.90;;;12.30;99.90;;;;;;5081003;28;20044;-69
2023/09/23 00:49:34;;;;;;;1999.90;999.90;;;12.20;99.90;;;;;;5084417;28;20044;-69
2023/09/23 00:52:03;;;;;;;1999.90;999.90;;;12.20;99.90;;;;;;5080011;28;20029;-69
2023/09/23 00:54:31;;;;;;;1999.90;999.90;;;12.20;99.90;;;;;;5085011;28;20063;-69
2023/09/23 00:57:00;;;;;;;1999.90;999.90;;;12.20;99.90;;;;;;5085275;28;20338;-69
2023/09/23 00:59:29;;;;;;;1999.90;999.90;;;12.20;99.90;;;;;;5091879;28;20024;-69
2023/09/23 01:01:56;;;;;;;1999.90;999.90;;;12.20;99.90;;;;;;5091128;28;20028;-69
2023/09/23 01:04:22;;;;;;;;;;;12.10;99.90;;;;;;5089163;28;20423;-70
2023/09/23 01:06:48;;;;;;;1999.90;999.90;;;12.10;99.90;;;;;;5076701;28;19908;-69
2023/09/23 01:09:20;;;;;;;1999.90;999.90;;;12.10;99.90;;;;;;5076654;28;20029;-69
2023/09/23 01:11:47;;;;;;;1999.90;999.90;;;12.10;99.90;;;;;;5076401;28;20044;-79
2023/09/23 01:14:13;;;;;;;;;;;12.10;99.90;;;;;;5076221;28;20021;-69
2023/09/23 01:16:39;;;;;;;1999.90;999.90;;;12.10;99.90;;;;;;5077327;28;20226;-68
2023/09/23 01:19:05;;;;;;;1999.90;999.90;;;12.10;99.90;;;;;;5079411;28;20020;-68
2023/09/23 01:21:31;;;;;;;1999.90;999.90;;;12.10;99.90;;;;;;5084931;28;20272;-70
2023/09/23 01:23:58;;;;;;;1999.90;999.90;;;12.10;99.90;;;;;;5090999;28;20088;-68
2023/09/23 01:26:24;;;;;;;1999.90;999.90;;;12.10;99.90;;;;;;5091316;28;20051;-68
2023/09/23 01:28:50;;;;;;;1999.90;999.90;;;12.10;99.90;;;;;;5090900;28;20036;-70
2023/09/23 01:31:21;;;;;;;1999.90;999.90;;;12.10;99.90;;;;;;5086704;28;20027;-68
2023/09/23 01:33:47;;;;;;;1999.90;999.90;;;12.20;99.90;;;;;;5096307;28;20047;-68
2023/09/23 01:36:13;;;;;;;1999.90;999.90;;;12.20;99.90;;;;;;5085333;28;20027;-68
2023/09/23 01:38:41;;;;;;;1999.90;999.90;;;12.20;99.90;;;;;;5085883;28;20028;-68
2023/09/23 01:41:07;;;;;;;1999.90;999.90;;;12.20;99.90;;;;;;5086421;28;20182;-69
2023/09/23 01:43:32;;;;;;;1999.90;999.90;;;12.30;99.90;;;;;;5084839;28;20095;-69
2023/09/23 01:46:03;;;;;;;1999.90;999.90;;;12.30;99.90;;;;;;5091577;28;20025;-68
2023/09/23 01:48:29;;;;;;;1999.90;999.90;;;12.30;99.90;;;;;;5089999;28;20092;-73
2023/09/23 01:50:58;;;;;;;1999.90;999.90;;;12.30;99.90;;;;;;5083631;28;20012;-68
2023/09/23 01:53:25;;;;;;;1999.90;999.90;;;12.30;99.90;;;;;;5081301;28;21331;-68
2023/09/23 01:55:52;;;;;;;1999.90;999.90;;;12.30;99.90;;;;;;5086715;28;20474;-68
2023/09/23 01:58:17;;;;;;;1999.90;999.90;;;12.30;99.90;;;;;;5090462;28;20073;-68
2023/09/23 02:00:44;;;;;;;1999.90;999.90;;;12.30;99.90;;;;;;5097937;28;20032;-69
2023/09/23 02:03:10;;;;;;;1999.90;999.90;;;12.30;99.90;;;;;;5096129;28;20016;-69
2023/09/23 02:05:36;;;;;;;1999.90;999.90;;;12.30;99.90;;;;;;5085740;28;20107;-69
2023/09/23 02:08:02;;;;;;;1999.90;999.90;;;12.40;99.90;;;;;;5075245;28;20111;-69
2023/09/23 02:10:28;;;;;;;1999.90;999.90;;;12.40;99.90;;;;;;5075081;28;20052;-69
2023/09/23 02:12:54;;;;;;;1999.90;999.90;;;12.40;99.90;;;;;;5074998;28;20608;-69
2023/09/23 02:15:20;;;;;;;1999.90;999.90;;;12.30;99.90;;;;;;5085111;28;20024;-70
2023/09/23 02:17:47;;;;;;;1999.90;999.90;;;12.30;99.90;;;;;;5089380;28;20024;-69
2023/09/23 02:20:25;;;;;;;1999.90;999.90;;;12.30;99.90;;;;;;5085820;28;20082;-68
2023/09/23 02:22:53;;;;;;;1999.90;999.90;;;12.30;99.90;;;;;;5086922;28;20031;-68
2023/09/23 02:25:19;;;;;;;1999.90;999.90;;;12.30;99.90;;;;;;5090939;28;20107;-68
2023/09/23 02:27:46;;;;;;;1999.90;999.90;;;12.30;99.90;;;;;;5082542;28;20048;-69
2023/09/23 02:30:13;;;;;;;1999.90;999.90;;;12.30;99.90;;;;;;5080992;28;20485;-68
2023/09/23 02:32:39;;;;;;;;;;;12.20;99.90;;;;;;5093614;28;20110;-68
2023/09/23 02:35:09;;;;;;;1999.90;999.90;;;12.20;99.90;;;;;;5093913;28;19969;-68
2023/09/23 02:37:40;;;;;;;1999.90;999.90;;;12.20;99.90;;;;;;5091527;28;20025;-68
2023/09/23 02:40:11;;;;;;;1999.90;999.90;;;12.20;99.90;;;;;;5081008;28;20099;-68
2023/09/23 02:42:42;;;;;;;1999.90;999.90;;;12.20;99.90;;;;;;5085312;28;20021;-68
2023/09/23 02:45:09;;;;;;;1999.90;999.90;;;12.20;99.90;;;;;;5085905;28;20403;-68
2023/09/23 02:47:36;;;;;;;1999.90;999.90;;;12.20;99.90;;;;;;5075333;28;20048;-68
2023/09/23 02:50:09;;;;;;;;;;;12.20;99.90;;;;;;5083233;28;20028;-69
2023/09/23 02:52:36;;;;;;;1999.90;999.90;;;12.20;99.90;;;;;;5097661;28;19912;-68
2023/09/23 02:55:03;;;;;;;1999.90;999.90;;;12.20;99.90;;;;;;5095691;28;20111;-68
2023/09/23 02:57:30;;;;;;;1999.90;999.90;;;12.20;99.90;;;;;;5093724;28;20024;-68
2023/09/23 02:59:58;;;;;;;1999.90;999.90;;;12.20;99.90;;;;;;5079350;28;20135;-68
2023/09/23 03:02:28;;;;;;;1999.90;999.90;;;12.30;99.90;;;;;;5077596;28;20035;-86
2023/09/23 03:04:58;;;;;;;1999.90;999.90;;;12.30;99.90;;;;;;5091107;28;20364;-69
2023/09/23 03:07:32;;;;;;;1999.90;999.90;;;12.30;99.90;;;;;;5094186;28;20318;-68
2023/09/23 03:10:01;;;;;;;1999.90;999.90;;;12.40;99.90;;;;;;5084987;28;20453;-69
2023/09/23 03:12:38;;;;;;;1999.90;999.90;;;12.40;99.90;;;;;;5080651;28;20108;-69
2023/09/23 03:15:14;;;;;;;1999.90;999.90;;;12.40;99.90;;;;;;5081378;28;20020;-69
2023/09/23 03:17:50;;;;;;;1999.90;999.90;;;12.40;99.90;;;;;;5090857;28;20017;-69
2023/09/23 03:20:21;;;;;;;1999.90;999.90;;;12.40;99.90;;;;;;5083348;28;20027;-68
2023/09/23 03:22:49;;;;;;;1999.90;999.90;;;12.40;99.90;;;;;;5079842;28;20464;-68
2023/09/23 03:25:17;;;;;;;1999.90;999.90;;;12.40;99.90;;;;;;5093352;28;20102;-68
2023/09/23 03:27:43;;;;;;;1999.90;999.90;;;12.40;99.90;;;;;;5093066;28;20028;-68
2023/09/23 03:30:12;;;;;;;1999.90;999.90;;;12.40;99.90;;;;;;5082576;28;20056;-72
2023/09/23 03:32:38;;;;;;;1999.90;999.90;;;12.40;99.90;;;;;;5089160;28;20028;-68
2023/09/23 03:35:08;;;;;;;1999.90;999.90;;;12.40;99.90;;;;;;5081972;28;20017;-68
2023/09/23 03:37:36;;;;;;;1999.90;999.90;;;12.40;99.90;;;;;;5073417;28;20023;-68
2023/09/23 03:40:07;;;;;;;1999.90;999.90;;;12.40;99.90;;;;;;5073922;28;20362;-68
2023/09/23 03:42:34;;;;;;;1999.90;999.90;;;12.40;99.90;;;;;;5072644;28;20423;-68
2023/09/23 03:45:00;;;;;;;1999.90;999.90;;;12.40;99.90;;;;;;5074081;28;20532;-68
2023/09/23 03:47:25;;;;;;;1999.90;999.90;;;12.40;99.90;;;;;;5077667;28;20025;-68
2023/09/23 03:49:51;;;;;;;1999.90;999.90;;;12.40;99.90;;;;;;5074050;28;20284;-68
2023/09/23 03:52:17;;;;;;;1999.90;999.90;;;12.40;99.90;;;;;;5091591;28;20092;-69
2023/09/23 03:54:43;;;;;;;1999.90;999.90;;;12.30;99.90;;;;;;5082693;28;20024;-68
2023/09/23 03:57:09;;;;;;;1999.90;999.90;;;12.40;99.90;;;;;;5085714;28;20040;-68
2023/09/23 03:59:36;;;;;;;1999.90;999.90;;;12.30;99.90;;;;;;5092043;28;20024;-68
2023/09/23 04:02:02;;;;;;;1999.90;999.90;;;12.30;99.90;;;;;;5092172;28;20024;-68
2023/09/23 04:04:27;;;;;;;1999.90;999.90;;;12.30;99.90;;;;;;5079340;28;20027;-68
2023/09/23 04:06:53;;;;;;;1999.90;999.90;;;12.20;99.90;;;;;;5094382;28;20020;-68
2023/09/23 04:09:19;;;;;;;1999.90;999.90;;;12.20;99.90;;;;;;5081980;28;20478;-69
2023/09/23 04:11:46;;;;;;;1999.90;999.90;;;12.30;99.90;;;;;;5085587;28;20024;-80
2023/09/23 04:14:12;;;;;;;1999.90;999.90;;;12.30;99.90;;;;;;5077840;28;20032;-68
2023/09/23 04:16:37;;;;;;;1999.90;999.90;;;12.30;99.90;;;;;;5084469;28;20039;-68
2023/09/23 04:19:03;;;;;;;1999.90;999.90;;;12.40;99.90;;;;;;5095196;28;20063;-68
2023/09/23 04:21:31;;;;;;;1999.90;999.90;;;12.40;99.90;;;;;;5083270;28;20365;-75
2023/09/23 04:24:00;;;;;;;1999.90;999.90;;;12.40;99.90;;;;;;5097886;28;20024;-68
2023/09/23 04:26:26;;;;;;;1999.90;999.90;;;12.40;99.90;;;;;;5079236;28;20070;-68
2023/09/23 04:28:54;;;;;;;1999.90;999.90;;;12.30;99.90;;;;;;5077613;28;20032;-68
2023/09/23 04:31:24;;;;;;;1999.90;999.90;;;12.40;99.90;;;;;;5091108;28;20315;-68
2023/09/23 04:33:51;;;;;;;1999.90;999.90;;;12.40;99.90;;;;;;5085823;28;20024;-68
2023/09/23 04:36:17;;;;;;;1999.90;999.90;;;12.40;99.90;;;;;;5097274;28;20028;-68
2023/09/23 04:38:45;;;;;;;1999.90;999.90;;;12.40;99.90;;;;;;5092303;28;20028;-68
2023/09/23 04:41:11;;;;;;;1999.90;999.90;;;12.40;99.90;;;;;;5076975;28;20033;-68
2023/09/23 04:43:39;;;;;;;1999.90;999.90;;;12.40;99.90;;;;;;5095286;28;20076;-68
2023/09/23 04:46:06;;;;;;;1999.90;999.90;;;12.50;99.90;;;;;;5084056;28;20025;-68
2023/09/23 04:48:32;;;;;;;1999.90;999.90;;;12.50;99.90;;;;;;5075559;28;20044;-68
2023/09/23 04:50:58;;;;;;;1999.90;999.90;;;12.50;99.90;;;;;;5081398;28;20071;-68
2023/09/23 04:53:24;;;;;;;1999.90;999.90;;;12.50;99.90;;;;;;5088572;28;20027;-67
2023/09/23 04:55:50;;;;;;;1999.90;999.90;;;12.50;99.90;;;;;;5096492;28;20261;-68
2023/09/23 04:58:16;;;;;;;1999.90;999.90;;;12.50;99.90;;;;;;5095362;28;20055;-68
2023/09/23 05:00:43;;;;;;;1999.90;999.90;;;12.50;99.90;;;;;;5080432;28;20300;-68
2023/09/23 05:03:08;;;;;;;1999.90;999.90;;;12.60;99.90;;;;;;5094628;28;20031;-93
2023/09/23 05:05:36;;;;;;;1999.90;999.90;;;12.50;99.90;;;;;;5093940;28;20032;-68
2023/09/23 05:08:09;;;;;;;1999.90;999.90;;;12.50;99.90;;;;;;5083633;28;20031;-68
2023/09/23 05:10:35;;;;;;;1999.90;999.90;;;12.50;99.90;;;;;;5084933;28;20403;-89
2023/09/23 05:13:01;;;;;;;1999.90;999.90;;;12.50;99.90;;;;;;5076702;28;20089;-69
2023/09/23 05:15:29;;;;;;;1999.90;999.90;;;12.50;99.90;;;;;;5097156;28;20359;-68
2023/09/23 05:17:57;;;;;;;1999.90;999.90;;;12.50;99.90;;;;;;5094204;28;20486;-68
2023/09/23 05:20:24;;;;;;;1999.90;999.90;;;12.50;99.90;;;;;;5094089;28;20429;-69
2023/09/23 05:22:51;;;;;;;1999.90;999.90;;;12.50;99.90;;;;;;5094061;28;20114;-68
2023/09/23 05:25:17;;;;;;;1999.90;999.90;;;12.50;99.90;;;;;;5076608;28;20047;-68
2023/09/23 05:27:43;;;;;;;1999.90;999.90;;;12.50;99.90;;;;;;5076140;28;20320;-69
2023/09/23 05:30:10;;;;;;;1999.90;999.90;;;12.50;99.90;;;;;;5076175;28;20028;-68
2023/09/23 05:32:39;;;;;;;1999.90;999.90;;;12.60;99.90;;;;;;5089586;28;20024;-69
2023/09/23 05:35:11;;;;;;;1999.90;999.90;;;12.60;99.90;;;;;;5076635;28;20017;-69
2023/09/23 05:37:38;;;;;;;1999.90;999.90;;;12.60;99.90;;;;;;5085494;28;20024;-69
2023/09/23 05:42:51;;;;;;;1999.90;999.90;;;12.60;99.90;;;;;;5084203;28;20032;-69
2023/09/23 05:45:18;;;;;;;1999.90;999.90;;;12.60;99.90;;;;;;5084785;28;20041;-69
2023/09/23 05:47:46;;;;;;;1999.90;999.90;;;12.70;99.90;;;;;;5075984;28;20048;-69
2023/09/23 05:50:16;;;;;;;1999.90;999.90;;;12.70;99.90;;;;;;5081690;28;20028;-69
2023/09/23 05:52:42;;;;;;;1999.90;999.90;;;12.60;99.90;;;;;;5096394;28;20059;-69
2023/09/23 05:55:08;;;;;;;1999.90;999.90;;;12.70;99.90;;;;;;5084646;28;20015;-68
2023/09/23 05:57:34;;;;;;;1999.90;999.90;;;12.70;99.90;;;;;;5103572;28;20383;-83
2023/09/23 06:00:01;;;;;;;1999.90;999.90;;;12.70;99.90;;;;;;5079277;28;20051;-68
2023/09/23 06:02:27;;;;;;;1999.90;999.90;;;12.70;99.90;;;;;;5087089;28;20039;-68
2023/09/23 06:04:53;;;;;;;1999.90;999.90;;;12.80;99.90;;;;;;5084456;28;20032;-68
2023/09/23 06:07:19;;;;;;;1999.90;999.90;;;12.70;99.90;;;;;;5086489;28;20015;-68
2023/09/23 06:09:45;;;;;;;1999.90;999.90;;;12.80;99.90;;;;;;5086026;28;20391;-68
2023/09/23 06:12:11;;;;;;;1999.90;999.90;;;12.80;99.90;;;;;;5081620;28;20025;-68
2023/09/23 06:14:37;;;;;;;1999.90;999.90;;;12.90;99.90;;;;;;5082114;28;20030;-77
2023/09/23 06:17:03;;;;;;;1999.90;999.90;;;12.90;99.90;;;;;;5091426;28;20348;-68
2023/09/23 06:19:28;;;;;;;1999.90;999.90;;;12.90;99.90;;;;;;5084738;28;20095;-68
2023/09/23 06:21:54;;;;;;;1999.90;999.90;;;12.90;99.90;;;;;;5080680;28;20315;-67
2023/09/23 06:24:20;;;;;;;1999.90;999.90;;;12.90;99.90;;;;;;5081579;28;20407;-69
2023/09/23 06:26:46;;;;;;;1999.90;999.90;;;12.90;99.90;;;;;;5097926;28;20039;-68
2023/09/23 06:29:15;;;;;;;1999.90;999.90;;;12.90;99.90;;;;;;5085214;28;20021;-68
2023/09/23 06:31:41;;;;;;;1999.90;999.90;;;12.90;99.90;;;;;;5083554;28;20492;-80
2023/09/23 06:34:07;;;;;;;1999.90;999.90;;;12.80;99.90;;;;;;5080331;28;20028;-68
2023/09/23 06:36:34;;;;;;;1999.90;999.90;;;12.70;99.90;;;;;;5078274;28;20478;-67
2023/09/23 06:38:59;;;;;;;1999.90;999.90;;;12.70;99.90;;;;;;5081886;28;20044;-67
2023/09/23 06:41:26;;;;;;;1999.90;999.90;;;12.70;99.90;;;;;;5094363;28;20324;-68
2023/09/23 06:43:52;;;;;;;1999.90;999.90;;;12.70;99.90;;;;;;5083829;28;20028;-68
2023/09/23 06:46:18;;;;;;;1999.90;999.90;;;12.70;99.90;;;;;;5087230;28;20028;-68
2023/09/23 06:48:44;;;;;;;1999.90;999.90;;;12.80;99.90;;;;;;5088607;28;20382;-68
2023/09/23 06:51:10;;;;;;;1999.90;999.90;;;12.90;99.90;;;;;;5086773;28;20028;-68
2023/09/23 06:53:36;;;;;;;1999.90;999.90;;;13.00;99.90;;;;;;5085826;28;20449;-68
2023/09/23 06:56:03;;;;;;;1999.90;999.90;;;13.20;99.90;;;;;;5087968;28;20343;-68
2023/09/23 06:58:29;;;;;;;1999.90;999.90;;;13.30;99.90;;;;;;5082362;28;20133;-87
2023/09/23 07:00:55;;;;;;;1999.90;999.90;;;13.50;99.90;;;;;;5080804;28;20382;-69
2023/09/23 07:03:21;;;;;;;1999.90;999.90;;;13.60;99.90;;;;;;5105259;28;20007;-68
2023/09/23 07:05:47;;;;;;;1999.90;999.90;;;13.70;99.90;;;;;;5081375;28;20331;-68
2023/09/23 07:08:13;;;;;;;1999.90;999.90;;;13.70;99.90;;;;;;5085349;28;20411;-68
2023/09/23 07:10:40;;;;;;;1999.90;999.90;;;13.70;99.90;;;;;;5092628;28;20020;-68
2023/09/23 07:13:06;;;;;;;1999.90;999.90;;;13.70;99.90;;;;;;5086662;28;20307;-68
2023/09/23 07:15:37;;;;;;;1999.90;999.90;;;13.70;99.90;;;;;;5091193;28;20036;-68
2023/09/23 07:18:03;;;;;;;1999.90;999.90;;;13.90;99.90;;;;;;5082532;28;20036;-68
2023/09/23 07:20:29;;;;;;;1999.90;999.90;;;14.10;99.90;;;;;;5081829;28;20440;-68
2023/09/23 07:22:55;;;;;;;1999.90;999.90;;;14.00;99.90;;;;;;5093197;28;20023;-68
2023/09/23 07:25:21;;;;;;;1999.90;999.90;;;14.10;99.90;;;;;;5098104;28;20023;-69
2023/09/23 07:27:47;;;;;;;1999.90;999.90;;;14.30;99.90;;;;;;5101885;28;20031;-68
2023/09/23 07:30:14;;;;;;;1999.90;999.90;;;14.30;99.90;;;;;;5095418;28;20336;-68
2023/09/23 07:32:40;;;;;;;;;;;14.20;99.90;;;;;;5091240;28;20029;-69
2023/09/23 07:35:07;;;;;;;1999.90;999.90;;;14.20;99.90;;;;;;5078931;28;20009;-68
2023/09/23 07:37:33;;;;;;;1999.90;999.90;;;14.20;99.90;;;;;;5096401;28;20043;-68
2023/09/23 07:39:59;;;;;;;1999.90;999.90;;;14.30;99.90;;;;;;5090738;28;20025;-68
2023/09/23 07:42:25;;;;;;;1999.90;999.90;;;14.50;99.90;;;;;;5087815;28;20029;-68
2023/09/23 07:44:51;;;;;;;1999.90;999.90;;;14.50;99.90;;;;;;5087617;28;20085;-68
2023/09/23 07:47:17;;;;;;;1999.90;999.90;;;14.50;99.90;;;;;;5084128;28;20032;-68
2023/09/23 07:49:43;;;;;;;1999.90;999.90;;;14.50;99.90;;;;;;5091343;28;20414;-87
2023/09/23 07:52:09;;;;;;;1999.90;999.90;;;14.40;99.90;;;;;;5105218;28;20035;-68
2023/09/23 07:54:36;;;;;;;1999.90;999.90;;;14.40;99.90;;;;;;5096032;28;20028;-68
2023/09/23 07:57:02;;;;;;;1999.90;999.90;;;14.30;99.90;;;;;;5103777;28;20060;-68
2023/09/23 07:59:28;;;;;;;1999.90;999.90;;;14.30;99.90;;;;;;5079398;28;20400;-91
2023/09/23 08:01:54;;;;;;;1999.90;999.90;;;14.30;99.90;;;;;;5089586;28;20311;-69
2023/09/23 08:04:20;;;;;;;1999.90;999.90;;;14.30;99.90;;;;;;5080781;28;20257;-69
2023/09/23 08:06:46;;;;;;;1999.90;999.90;;;14.30;99.90;;;;;;5101983;28;20020;-69
2023/09/23 08:09:12;;;;;;;1999.90;999.90;;;14.20;99.90;;;;;;5087966;28;20454;-69
2023/09/23 08:11:37;;;;;;;1999.90;999.90;;;14.20;99.90;;;;;;5078677;28;20427;-69
2023/09/23 08:14:03;;;;;;;1999.90;999.90;;;14.20;99.90;;;;;;5103047;28;20034;-68
2023/09/23 08:16:29;;;;;;;1999.90;999.90;;;14.20;99.90;;;;;;5094570;28;20108;-89
2023/09/23 08:18:55;;;;;;;1999.90;999.90;;;14.20;99.90;;;;;;5091302;28;20028;-69
2023/09/23 08:21:21;;;;;;;1999.90;999.90;;;14.20;99.90;;;;;;5082580;28;20620;-68
2023/09/23 08:23:47;;;;;;;1999.90;999.90;;;14.20;99.90;;;;;;5080810;28;20032;-68
2023/09/23 08:26:13;;;;;;;1999.90;999.90;;;14.20;99.90;;;;;;5089591;28;20325;-68
2023/09/23 08:28:39;;;;;;;1999.90;999.90;;;14.20;99.90;;;;;;5095389;28;20020;-69
2023/09/23 08:31:05;;;;;;;1999.90;999.90;;;14.20;99.90;;;;;;5088474;28;20024;-68
2023/09/23 08:33:32;;;;;;;1999.90;999.90;;;14.20;99.90;;;;;;5081082;28;20028;-89
2023/09/23 08:35:58;;;;;;;1999.90;999.90;;;14.30;99.90;;;;;;5101654;28;20039;-82
2023/09/23 08:38:24;;;;;;;1999.90;999.90;;;14.40;99.90;;;;;;5092899;28;20028;-68
2023/09/23 08:40:52;;;;;;;1999.90;999.90;;;14.60;99.90;;;;;;5088504;28;20442;-68
2023/09/23 08:43:27;;;;;;;1999.90;999.90;;;14.80;99.90;;;;;;5087780;28;20015;-68
2023/09/23 08:45:55;;;;;;;1999.90;999.90;;;15.20;99.90;;;;;;5079592;28;20066;-67
2023/09/23 08:48:21;;;;;;;1999.90;999.90;;;15.40;99.90;;;;;;5100519;28;20078;-68
2023/09/23 08:50:51;;;;;;;1999.90;999.90;;;15.50;99.90;;;;;;5091197;28;20020;-68
2023/09/23 08:53:19;;;;;;;1999.90;999.90;;;15.40;99.90;;;;;;5106747;28;20023;-68
2023/09/23 08:55:47;;;;;;;1999.90;999.90;;;15.40;99.90;;;;;;5085119;28;20137;-68
2023/09/23 08:58:13;;;;;;;1999.90;999.90;;;15.30;99.90;;;;;;5087734;28;20032;-68
2023/09/23 09:00:45;;;;;;;1999.90;999.90;;;15.20;99.90;;;;;;5085318;27;20293;-68
2023/09/23 09:03:11;;;;;;;1999.90;999.90;;;15.20;99.90;;;;;;5098618;28;20096;-68
2023/09/23 09:05:39;;;;;;;1999.90;999.90;;;15.20;99.90;;;;;;5097848;28;20107;-85
2023/09/23 09:08:06;;;;;;;1999.90;999.90;;;15.30;99.90;;;;;;5090495;28;20051;-68
2023/09/23 09:10:32;;;;;;;1999.90;999.90;;;15.60;99.90;;;;;;5080438;28;20354;-68
2023/09/23 09:13:03;;;;;;;1999.90;999.90;;;15.90;99.90;;;;;;5090115;28;20299;-83
2023/09/23 09:15:30;;;;;;;1999.90;999.90;;;16.10;99.90;;;;;;5108492;28;20027;-68
2023/09/23 09:17:59;;;;;;;1999.90;999.90;;;16.10;99.90;;;;;;5097745;28;20043;-68
2023/09/23 09:20:25;;;;;;;1999.90;999.90;;;16.10;99.90;;;;;;5101240;28;20024;-68
2023/09/23 09:22:51;;;;;;;1999.90;999.90;;;16.00;99.90;;;;;;5080469;28;20074;-68
2023/09/23 09:25:20;;;;;;;1999.90;999.90;;;15.90;99.90;;;;;;5088536;28;20102;-68
2023/09/23 09:27:47;;;;;;;1999.90;999.90;;;15.80;99.90;;;;;;5098140;28;20020;-68
2023/09/23 09:30:13;;;;;;;1999.90;999.90;;;15.70;99.90;;;;;;5091213;28;20052;-68
2023/09/23 09:32:44;;;;;;;1999.90;999.90;;;16.00;99.90;;;;;;5081767;28;20051;-69
2023/09/23 09:35:19;;;;;;;1999.90;999.90;;;16.50;99.90;;;;;;5097891;28;20322;-76
2023/09/23 09:37:47;;;;;;;1999.90;999.90;;;16.90;99.90;;;;;;5086726;28;20031;-69
2023/09/23 09:40:18;;;;;;;1999.90;999.90;;;17.20;99.90;;;;;;5087262;28;20016;-69
2023/09/23 09:42:54;;;;;;;1999.90;999.90;;;17.20;99.90;;;;;;5083668;28;20112;-69
2023/09/23 09:45:22;;;;;;;1999.90;999.90;;;17.00;99.90;;;;;;5086332;28;20322;-69
2023/09/23 09:47:50;;;;;;;1999.90;999.90;;;16.80;99.90;;;;;;5093763;28;20043;-69
2023/09/23 09:50:16;;;;;;;1999.90;999.90;;;16.60;99.90;;;;;;5088105;28;20421;-68
2023/09/23 09:52:43;;;;;;;1999.90;999.90;;;16.40;99.90;;;;;;5095836;28;20024;-69
2023/09/23 09:55:18;;;;;;;1999.90;999.90;;;16.30;99.90;;;;;;5093551;28;20024;-69
2023/09/23 09:57:45;;;;;;;1999.90;999.90;;;16.20;99.90;;;;;;5092391;28;20031;-68
2023/09/23 10:00:26;;;;;;;1999.90;999.90;;;16.20;99.90;;;;;;5088847;28;20013;-69
2023/09/23 10:03:06;;;;;;;1999.90;999.90;;;16.20;99.90;;;;;;5105265;28;20024;-69
2023/09/23 10:05:33;;;;;;;1999.90;999.90;;;16.30;99.90;;;;;;5079727;28;20020;-69
2023/09/23 10:08:09;;;;;;;1999.90;999.90;;;16.30;99.90;;;;;;5074645;28;20027;-69
2023/09/23 10:10:35;;;;;;;1999.90;999.90;;;16.40;99.90;;;;;;5078594;28;20070;-69
2023/09/23 10:13:11;;;;;;;1999.90;999.90;;;16.50;99.90;;;;;;5075353;28;20074;-69
2023/09/23 10:15:38;;;;;;;1999.90;999.90;;;16.40;99.90;;;;;;5075274;28;20031;-68
2023/09/23 10:18:11;;;;;;;1999.90;999.90;;;16.50;99.90;;;;;;5074925;28;20242;-68
2023/09/23 10:20:41;;;;;;;1999.90;999.90;;;16.40;99.90;;;;;;5078180;28;20135;-68
2023/09/23 10:23:08;;;;;;;1999.90;999.90;;;16.40;99.90;;;;;;5082057;28;20028;-68
2023/09/23 10:25:37;;;;;;;;;;;16.40;99.90;;;;;;5084627;28;20411;-68
2023/09/23 10:28:04;;;;;;;1999.90;999.90;;;16.30;99.90;;;;;;5089093;28;19991;-69
2023/09/23 10:30:32;;;;;;;1999.90;999.90;;;16.20;99.90;;;;;;5076432;28;20085;-68
2023/09/23 10:32:58;;;;;;;1999.90;999.90;;;16.10;99.90;;;;;;5078134;28;20016;-68
2023/09/23 10:35:24;;;;;;;1999.90;999.90;;;16.00;99.90;;;;;;5074936;28;20318;-86
2023/09/23 10:37:50;;;;;;;1999.90;999.90;;;16.00;99.90;;;;;;5074612;28;20081;-69
2023/09/23 10:40:17;;;;;;;1999.90;999.90;;;15.90;99.90;;;;;;5080321;28;20476;-68
2023/09/23 10:42:46;;;;;;;1999.90;999.90;;;15.80;99.90;;;;;;5080580;28;20032;-68
2023/09/23 10:45:13;;;;;;;1999.90;999.90;;;15.80;99.90;;;;;;5079572;28;20430;-68
2023/09/23 10:47:40;;;;;;;1999.90;999.90;;;15.70;99.90;;;;;;5074533;28;20079;-68
2023/09/23 10:50:08;;;;;;;1999.90;999.90;;;15.70;99.90;;;;;;5078343;28;20635;-68
2023/09/23 10:52:34;;;;;;;1999.90;999.90;;;15.70;99.90;;;;;;5093589;28;20407;-68
2023/09/23 10:55:02;;;;;;;1999.90;999.90;;;15.60;99.90;;;;;;5088658;28;20078;-67
2023/09/23 10:57:28;;;;;;;1999.90;999.90;;;15.60;99.90;;;;;;5080289;28;20318;-68
2023/09/23 10:59:55;;;;;;;1999.90;999.90;;;15.50;99.90;;;;;;5092819;28;20521;-67
2023/09/23 11:02:25;;;;;;;1999.90;999.90;;;15.60;99.90;;;;;;5093049;28;20078;-69
2023/09/23 11:04:53;;;;;;;1999.90;999.90;;;15.80;99.90;;;;;;5077423;28;20036;-68
2023/09/23 11:07:20;;;;;;;1999.90;999.90;;;15.70;99.90;;;;;;5078373;28;20323;-67
2023/09/23 11:09:49;;;;;;;1999.90;999.90;;;15.70;99.90;;;;;;5094733;28;20406;-92
2023/09/23 11:12:16;;;;;;;1999.90;999.90;;;15.70;99.90;;;;;;5088911;28;20032;-68
2023/09/23 11:14:50;;;;;;;1999.90;999.90;;;15.70;99.90;;;;;;5076057;28;20068;-67
2023/09/23 11:17:25;;;;;;;1999.90;999.90;;;15.80;99.90;;;;;;5076552;28;20033;-67
2023/09/23 11:19:54;;;;;;;1999.90;999.90;;;15.80;99.90;;;;;;5085874;28;20426;-67
2023/09/23 11:22:27;;;;;;;1999.90;999.90;;;16.00;99.90;;;;;;5082990;28;20071;-67
2023/09/23 11:24:57;;;;;;;1999.90;999.90;;;16.40;99.90;;;;;;5079696;28;20043;-68
2023/09/23 11:27:24;;;;;;;1999.90;999.90;;;16.80;99.90;;;;;;5080029;28;20021;-67
2023/09/23 11:29:52;;;;;;;1999.90;999.90;;;17.00;99.90;;;;;;5090342;28;20054;-67
2023/09/23 11:32:23;;;;;;;1999.90;999.90;;;17.10;99.90;;;;;;5091101;28;20398;-67
2023/09/23 11:34:50;;;;;;;1999.90;999.90;;;17.10;99.90;;;;;;5090751;28;20132;-67
2023/09/23 11:37:18;;;;;;;1999.90;999.90;;;17.10;99.90;;;;;;5086273;28;20039;-69
2023/09/23 11:39:43;;;;;;;1999.90;999.90;;;17.00;99.90;;;;;;5085396;28;20064;-68
2023/09/23 11:42:09;;;;;;;1999.90;999.90;;;16.90;99.90;;;;;;5080044;28;20056;-68
2023/09/23 11:44:35;;;;;;;1999.90;999.90;;;16.90;99.90;;;;;;5080214;28;20025;-67
2023/09/23 11:47:01;;;;;;;1999.90;999.90;;;16.90;99.90;;;;;;5092832;28;20323;-69
2023/09/23 11:49:27;;;;;;;1999.90;999.90;;;16.80;99.90;;;;;;5089887;28;20100;-68
2023/09/23 11:51:52;;;;;;;1999.90;999.90;;;16.80;99.90;;;;;;5082611;28;20062;-68
2023/09/23 11:54:18;;;;;;;1999.90;999.90;;;16.80;99.90;;;;;;5076404;28;20164;-68
2023/09/23 11:56:44;;;;;;;1999.90;999.90;;;16.80;99.90;;;;;;5078964;28;20024;-68
2023/09/23 11:59:10;;;;;;;1999.90;999.90;;;16.80;99.90;;;;;;5074551;28;20368;-68
2023/09/23 12:01:36;;;;;;;1999.90;999.90;;;16.90;99.90;;;;;;5069683;28;20166;-67
2023/09/23 12:04:02;;;;;;;1999.90;999.90;;;16.90;99.90;;;;;;5084581;28;20063;-68